Terminal Aerodrome Forecast
Issued by NWS

Home | Current Version | Previous Version | Text Only | Print | Product List | Glossary On
Versions: 1 2 3 4 5 6 7 8 9 10 11 12 13 14 15 16 17 18
889
FTUS43 KILX 251136
TAFBMI
TAF
KBMI 251136Z 2512/2612 06014KT 2SM -RA BR OVC002
     FM251300 12012KT 4SM -SHRA OVC010
     FM251500 16014G22KT P6SM VCSH OVC035
     FM251700 17013G21KT P6SM OVC050
     FM252300 15009KT P6SM -SHRA VCTS OVC050CB
     FM260300 13009KT P6SM VCSH OVC015
     FM260600 14010KT 3SM BR BKN010
     FM261000 16008KT 2SM BR OVC006=

USA.gov is the U.S. government's official web portal to all federal, state and local government web resources and services.